sensor_id;sensor_type;location;lat;lon;timestamp;P1;durP1;ratioP1;P2;durP2;ratioP2
11877;SDS011;5998;42.676;23.268;2022-12-07T00:01:04;34.57;;;23.00;;
11877;SDS011;5998;42.676;23.268;2022-12-07T00:03:30;35.80;;;21.73;;
11877;SDS011;5998;42.676;23.268;2022-12-07T00:05:57;38.33;;;23.40;;
11877;SDS011;5998;42.676;23.268;2022-12-07T00:08:24;42.30;;;24.60;;
11877;SDS011;5998;42.676;23.268;2022-12-07T00:10:51;41.03;;;25.17;;
11877;SDS011;5998;42.676;23.268;2022-12-07T00:13:17;40.30;;;24.60;;
11877;SDS011;5998;42.676;23.268;2022-12-07T00:15:44;41.47;;;24.63;;
11877;SDS011;5998;42.676;23.268;2022-12-07T00:18:10;41.03;;;24.73;;
11877;SDS011;5998;42.676;23.268;2022-12-07T00:20:37;34.97;;;22.90;;
11877;SDS011;5998;42.676;23.268;2022-12-07T00:23:03;38.70;;;23.80;;
11877;SDS011;5998;42.676;23.268;2022-12-07T00:25:31;38.67;;;23.77;;
11877;SDS011;5998;42.676;23.268;2022-12-07T00:27:57;38.90;;;24.17;;
11877;SDS011;5998;42.676;23.268;2022-12-07T00:30:24;36.87;;;24.23;;
11877;SDS011;5998;42.676;23.268;2022-12-07T00:32:50;33.40;;;21.90;;
11877;SDS011;5998;42.676;23.268;2022-12-07T00:35:17;36.60;;;23.17;;
11877;SDS011;5998;42.676;23.268;2022-12-07T00:37:43;37.33;;;23.70;;
11877;SDS011;5998;42.676;23.268;2022-12-07T00:40:10;40.70;;;24.20;;
11877;SDS011;5998;42.676;23.268;2022-12-07T00:42:38;39.63;;;23.93;;
11877;SDS011;5998;42.676;23.268;2022-12-07T00:45:05;42.80;;;25.13;;
11877;SDS011;5998;42.676;23.268;2022-12-07T00:47:31;39.50;;;25.27;;
11877;SDS011;5998;42.676;23.268;2022-12-07T00:49:58;36.93;;;24.57;;
11877;SDS011;5998;42.676;23.268;2022-12-07T00:52:25;39.40;;;24.60;;
11877;SDS011;5998;42.676;23.268;2022-12-07T00:54:51;38.90;;;25.40;;
11877;SDS011;5998;42.676;23.268;2022-12-07T00:57:18;43.33;;;24.70;;
11877;SDS011;5998;42.676;23.268;2022-12-07T00:59:46;40.50;;;25.60;;
11877;SDS011;5998;42.676;23.268;2022-12-07T01:02:12;41.57;;;24.53;;
11877;SDS011;5998;42.676;23.268;2022-12-07T01:04:39;35.40;;;23.03;;
11877;SDS011;5998;42.676;23.268;2022-12-07T01:07:05;34.30;;;23.17;;
11877;SDS011;5998;42.676;23.268;2022-12-07T01:09:32;35.93;;;23.10;;
11877;SDS011;5998;42.676;23.268;2022-12-07T01:11:58;35.80;;;22.70;;
11877;SDS011;5998;42.676;23.268;2022-12-07T01:14:25;39.97;;;24.60;;
11877;SDS011;5998;42.676;23.268;2022-12-07T01:16:52;34.13;;;23.27;;
11877;SDS011;5998;42.676;23.268;2022-12-07T01:19:19;38.73;;;22.40;;
11877;SDS011;5998;42.676;23.268;2022-12-07T01:21:45;38.80;;;23.67;;
11877;SDS011;5998;42.676;23.268;2022-12-07T01:24:12;35.03;;;22.73;;
11877;SDS011;5998;42.676;23.268;2022-12-07T01:26:38;41.37;;;23.40;;
11877;SDS011;5998;42.676;23.268;2022-12-07T01:29:05;33.23;;;21.53;;
11877;SDS011;5998;42.676;23.268;2022-12-07T01:31:31;43.23;;;23.13;;
11877;SDS011;5998;42.676;23.268;2022-12-07T01:33:59;30.67;;;21.07;;
11877;SDS011;5998;42.676;23.268;2022-12-07T01:36:27;36.57;;;21.93;;
11877;SDS011;5998;42.676;23.268;2022-12-07T01:38:55;34.50;;;21.97;;
11877;SDS011;5998;42.676;23.268;2022-12-07T01:41:22;31.40;;;21.13;;
11877;SDS011;5998;42.676;23.268;2022-12-07T01:46:33;32.77;;;21.10;;
11877;SDS011;5998;42.676;23.268;2022-12-07T01:49:01;35.43;;;21.57;;
11877;SDS011;5998;42.676;23.268;2022-12-07T01:51:27;35.93;;;22.13;;
11877;SDS011;5998;42.676;23.268;2022-12-07T01:53:54;35.17;;;21.30;;
11877;SDS011;5998;42.676;23.268;2022-12-07T01:56:22;32.47;;;21.37;;
11877;SDS011;5998;42.676;23.268;2022-12-07T01:58:49;32.47;;;21.17;;
11877;SDS011;5998;42.676;23.268;2022-12-07T02:01:17;34.17;;;21.17;;
11877;SDS011;5998;42.676;23.268;2022-12-07T02:03:43;36.87;;;22.10;;
11877;SDS011;5998;42.676;23.268;2022-12-07T02:06:13;35.10;;;22.87;;
11877;SDS011;5998;42.676;23.268;2022-12-07T02:08:41;31.87;;;21.40;;
11877;SDS011;5998;42.676;23.268;2022-12-07T02:11:08;34.00;;;22.20;;
11877;SDS011;5998;42.676;23.268;2022-12-07T02:13:35;35.13;;;21.23;;
11877;SDS011;5998;42.676;23.268;2022-12-07T02:16:09;31.17;;;20.67;;
11877;SDS011;5998;42.676;23.268;2022-12-07T02:18:44;29.60;;;19.20;;
11877;SDS011;5998;42.676;23.268;2022-12-07T02:21:17;30.63;;;19.57;;
11877;SDS011;5998;42.676;23.268;2022-12-07T02:24:10;34.57;;;21.50;;
11877;SDS011;5998;42.676;23.268;2022-12-07T02:26:54;33.03;;;21.00;;
11877;SDS011;5998;42.676;23.268;2022-12-07T02:29:29;34.13;;;21.73;;
11877;SDS011;5998;42.676;23.268;2022-12-07T02:32:02;34.47;;;20.90;;
11877;SDS011;5998;42.676;23.268;2022-12-07T02:34:32;38.13;;;21.37;;
11877;SDS011;5998;42.676;23.268;2022-12-07T02:37:01;34.20;;;21.60;;
11877;SDS011;5998;42.676;23.268;2022-12-07T02:39:31;33.73;;;21.43;;
11877;SDS011;5998;42.676;23.268;2022-12-07T02:42:01;31.67;;;20.47;;
11877;SDS011;5998;42.676;23.268;2022-12-07T02:44:30;36.37;;;19.80;;
11877;SDS011;5998;42.676;23.268;2022-12-07T02:46:58;28.93;;;19.00;;
11877;SDS011;5998;42.676;23.268;2022-12-07T02:49:26;32.60;;;20.47;;
11877;SDS011;5998;42.676;23.268;2022-12-07T02:51:53;30.77;;;20.40;;
11877;SDS011;5998;42.676;23.268;2022-12-07T02:54:20;31.40;;;20.57;;
11877;SDS011;5998;42.676;23.268;2022-12-07T02:56:48;33.07;;;20.37;;
11877;SDS011;5998;42.676;23.268;2022-12-07T02:59:17;32.33;;;20.57;;
11877;SDS011;5998;42.676;23.268;2022-12-07T03:01:52;29.63;;;19.43;;
11877;SDS011;5998;42.676;23.268;2022-12-07T03:04:26;30.10;;;20.03;;
11877;SDS011;5998;42.676;23.268;2022-12-07T03:06:56;34.93;;;20.60;;
11877;SDS011;5998;42.676;23.268;2022-12-07T03:09:27;32.93;;;20.20;;
11877;SDS011;5998;42.676;23.268;2022-12-07T03:11:59;30.80;;;20.00;;
11877;SDS011;5998;42.676;23.268;2022-12-07T03:14:29;32.60;;;20.40;;
11877;SDS011;5998;42.676;23.268;2022-12-07T03:16:58;33.47;;;19.73;;
11877;SDS011;5998;42.676;23.268;2022-12-07T03:19:27;32.33;;;19.33;;
11877;SDS011;5998;42.676;23.268;2022-12-07T03:21:54;32.10;;;19.57;;
11877;SDS011;5998;42.676;23.268;2022-12-07T03:24:24;28.90;;;19.83;;
11877;SDS011;5998;42.676;23.268;2022-12-07T03:26:52;35.33;;;20.13;;
11877;SDS011;5998;42.676;23.268;2022-12-07T03:29:22;28.87;;;19.10;;
11877;SDS011;5998;42.676;23.268;2022-12-07T03:31:50;27.73;;;18.80;;
11877;SDS011;5998;42.676;23.268;2022-12-07T03:34:21;31.07;;;19.43;;
11877;SDS011;5998;42.676;23.268;2022-12-07T03:36:48;33.90;;;19.70;;
11877;SDS011;5998;42.676;23.268;2022-12-07T03:39:19;31.67;;;19.83;;
11877;SDS011;5998;42.676;23.268;2022-12-07T03:41:47;32.10;;;20.97;;
11877;SDS011;5998;42.676;23.268;2022-12-07T03:44:13;33.67;;;20.60;;
11877;SDS011;5998;42.676;23.268;2022-12-07T03:46:42;30.77;;;21.07;;
11877;SDS011;5998;42.676;23.268;2022-12-07T03:49:11;33.70;;;22.37;;
11877;SDS011;5998;42.676;23.268;2022-12-07T03:51:43;40.27;;;24.00;;
11877;SDS011;5998;42.676;23.268;2022-12-07T03:54:13;33.97;;;21.47;;
11877;SDS011;5998;42.676;23.268;2022-12-07T03:56:40;33.27;;;21.20;;
11877;SDS011;5998;42.676;23.268;2022-12-07T03:59:08;336.47;;;42.13;;
11877;SDS011;5998;42.676;23.268;2022-12-07T04:01:35;36.03;;;22.77;;
11877;SDS011;5998;42.676;23.268;2022-12-07T04:04:02;33.33;;;21.10;;
11877;SDS011;5998;42.676;23.268;2022-12-07T04:06:28;36.07;;;23.60;;
11877;SDS011;5998;42.676;23.268;2022-12-07T04:08:56;35.97;;;22.67;;
11877;SDS011;5998;42.676;23.268;2022-12-07T04:11:22;38.70;;;24.43;;
11877;SDS011;5998;42.676;23.268;2022-12-07T04:13:49;35.57;;;24.27;;
11877;SDS011;5998;42.676;23.268;2022-12-07T04:16:33;45.13;;;25.37;;
11877;SDS011;5998;42.676;23.268;2022-12-07T04:18:59;34.87;;;22.83;;
11877;SDS011;5998;42.676;23.268;2022-12-07T04:21:26;42.27;;;23.83;;
11877;SDS011;5998;42.676;23.268;2022-12-07T04:23:52;36.37;;;24.27;;
11877;SDS011;5998;42.676;23.268;2022-12-07T04:26:20;38.57;;;24.63;;
11877;SDS011;5998;42.676;23.268;2022-12-07T04:28:46;62.63;;;27.47;;
11877;SDS011;5998;42.676;23.268;2022-12-07T04:31:13;36.60;;;24.37;;
11877;SDS011;5998;42.676;23.268;2022-12-07T04:33:39;35.43;;;23.93;;
11877;SDS011;5998;42.676;23.268;2022-12-07T04:36:06;40.60;;;24.40;;
11877;SDS011;5998;42.676;23.268;2022-12-07T04:38:32;41.50;;;23.53;;
11877;SDS011;5998;42.676;23.268;2022-12-07T04:41:03;35.73;;;23.47;;
11877;SDS011;5998;42.676;23.268;2022-12-07T04:43:31;39.47;;;24.63;;
11877;SDS011;5998;42.676;23.268;2022-12-07T04:45:58;39.13;;;24.00;;
11877;SDS011;5998;42.676;23.268;2022-12-07T04:48:24;39.03;;;25.20;;
11877;SDS011;5998;42.676;23.268;2022-12-07T04:50:51;36.97;;;23.40;;
11877;SDS011;5998;42.676;23.268;2022-12-07T04:53:17;40.10;;;24.53;;
11877;SDS011;5998;42.676;23.268;2022-12-07T04:55:44;37.07;;;24.37;;
11877;SDS011;5998;42.676;23.268;2022-12-07T04:58:11;42.73;;;25.30;;
11877;SDS011;5998;42.676;23.268;2022-12-07T05:00:39;43.70;;;26.50;;
11877;SDS011;5998;42.676;23.268;2022-12-07T05:03:05;33.93;;;23.20;;
11877;SDS011;5998;42.676;23.268;2022-12-07T05:05:32;34.97;;;24.10;;
11877;SDS011;5998;42.676;23.268;2022-12-07T05:07:58;37.40;;;22.50;;
11877;SDS011;5998;42.676;23.268;2022-12-07T05:10:25;36.47;;;21.50;;
11877;SDS011;5998;42.676;23.268;2022-12-07T05:12:51;36.53;;;21.57;;
11877;SDS011;5998;42.676;23.268;2022-12-07T05:15:17;39.13;;;23.60;;
11877;SDS011;5998;42.676;23.268;2022-12-07T05:17:45;41.47;;;25.93;;
11877;SDS011;5998;42.676;23.268;2022-12-07T05:20:12;41.77;;;26.20;;
11877;SDS011;5998;42.676;23.268;2022-12-07T05:22:38;45.53;;;25.40;;
11877;SDS011;5998;42.676;23.268;2022-12-07T05:25:05;39.07;;;23.73;;
11877;SDS011;5998;42.676;23.268;2022-12-07T05:27:31;38.97;;;23.57;;
11877;SDS011;5998;42.676;23.268;2022-12-07T05:29:58;35.30;;;23.33;;
11877;SDS011;5998;42.676;23.268;2022-12-07T05:32:24;37.33;;;23.80;;
11877;SDS011;5998;42.676;23.268;2022-12-07T05:34:52;37.27;;;23.73;;
11877;SDS011;5998;42.676;23.268;2022-12-07T05:37:19;36.77;;;23.87;;
11877;SDS011;5998;42.676;23.268;2022-12-07T05:39:46;39.67;;;25.50;;
11877;SDS011;5998;42.676;23.268;2022-12-07T05:42:12;46.40;;;26.27;;
11877;SDS011;5998;42.676;23.268;2022-12-07T05:44:38;43.57;;;24.50;;
11877;SDS011;5998;42.676;23.268;2022-12-07T05:47:04;48.13;;;25.43;;
11877;SDS011;5998;42.676;23.268;2022-12-07T05:49:31;43.47;;;25.20;;
11877;SDS011;5998;42.676;23.268;2022-12-07T05:51:59;38.43;;;23.53;;
11877;SDS011;5998;42.676;23.268;2022-12-07T05:54:25;42.33;;;24.57;;
11877;SDS011;5998;42.676;23.268;2022-12-07T05:56:51;45.63;;;28.70;;
11877;SDS011;5998;42.676;23.268;2022-12-07T05:59:18;44.37;;;25.57;;
11877;SDS011;5998;42.676;23.268;2022-12-07T06:01:50;45.57;;;24.63;;
11877;SDS011;5998;42.676;23.268;2022-12-07T06:04:16;49.50;;;26.90;;
11877;SDS011;5998;42.676;23.268;2022-12-07T06:06:43;43.70;;;25.80;;
11877;SDS011;5998;42.676;23.268;2022-12-07T06:09:11;423.53;;;63.43;;
11877;SDS011;5998;42.676;23.268;2022-12-07T06:11:38;48.63;;;29.50;;
11877;SDS011;5998;42.676;23.268;2022-12-07T06:14:22;55.47;;;32.47;;
11877;SDS011;5998;42.676;23.268;2022-12-07T06:16:48;1049.23;;;91.53;;
11877;SDS011;5998;42.676;23.268;2022-12-07T06:19:15;53.00;;;32.83;;
11877;SDS011;5998;42.676;23.268;2022-12-07T06:21:41;54.03;;;34.30;;
11877;SDS011;5998;42.676;23.268;2022-12-07T06:24:08;51.37;;;32.07;;
11877;SDS011;5998;42.676;23.268;2022-12-07T06:26:37;57.10;;;33.13;;
11877;SDS011;5998;42.676;23.268;2022-12-07T06:29:04;52.50;;;32.10;;
11877;SDS011;5998;42.676;23.268;2022-12-07T06:31:30;46.57;;;28.87;;
11877;SDS011;5998;42.676;23.268;2022-12-07T06:33:57;163.33;;;36.20;;
11877;SDS011;5998;42.676;23.268;2022-12-07T06:36:23;50.90;;;29.63;;
11877;SDS011;5998;42.676;23.268;2022-12-07T06:38:50;47.10;;;30.37;;
11877;SDS011;5998;42.676;23.268;2022-12-07T06:41:17;47.93;;;29.47;;
11877;SDS011;5998;42.676;23.268;2022-12-07T06:43:44;49.03;;;28.03;;
11877;SDS011;5998;42.676;23.268;2022-12-07T06:46:11;46.20;;;28.47;;
11877;SDS011;5998;42.676;23.268;2022-12-07T06:48:37;45.67;;;26.70;;
11877;SDS011;5998;42.676;23.268;2022-12-07T06:51:04;39.07;;;25.80;;
11877;SDS011;5998;42.676;23.268;2022-12-07T06:53:30;39.80;;;26.63;;
11877;SDS011;5998;42.676;23.268;2022-12-07T06:55:57;45.83;;;27.23;;
11877;SDS011;5998;42.676;23.268;2022-12-07T06:58:23;41.53;;;27.20;;
11877;SDS011;5998;42.676;23.268;2022-12-07T07:00:51;40.97;;;25.33;;
11877;SDS011;5998;42.676;23.268;2022-12-07T07:03:18;51.90;;;28.00;;
11877;SDS011;5998;42.676;23.268;2022-12-07T07:05:44;42.37;;;26.67;;
11877;SDS011;5998;42.676;23.268;2022-12-07T07:08:11;133.90;;;40.87;;
11877;SDS011;5998;42.676;23.268;2022-12-07T07:10:37;43.50;;;26.70;;
11877;SDS011;5998;42.676;23.268;2022-12-07T07:13:04;43.30;;;26.63;;
11877;SDS011;5998;42.676;23.268;2022-12-07T07:15:31;39.10;;;26.30;;
11877;SDS011;5998;42.676;23.268;2022-12-07T07:17:59;47.40;;;28.07;;
11877;SDS011;5998;42.676;23.268;2022-12-07T07:20:26;42.60;;;27.90;;
11877;SDS011;5998;42.676;23.268;2022-12-07T07:22:53;44.20;;;25.60;;
11877;SDS011;5998;42.676;23.268;2022-12-07T07:25:20;42.47;;;27.73;;
11877;SDS011;5998;42.676;23.268;2022-12-07T07:27:46;37.67;;;24.87;;
11877;SDS011;5998;42.676;23.268;2022-12-07T07:30:13;40.67;;;24.73;;
11877;SDS011;5998;42.676;23.268;2022-12-07T07:32:39;45.00;;;25.30;;
11877;SDS011;5998;42.676;23.268;2022-12-07T07:35:07;40.37;;;26.00;;
11877;SDS011;5998;42.676;23.268;2022-12-07T07:37:34;41.60;;;25.47;;
11877;SDS011;5998;42.676;23.268;2022-12-07T07:40:00;45.23;;;24.20;;
11877;SDS011;5998;42.676;23.268;2022-12-07T07:42:27;40.93;;;23.90;;
11877;SDS011;5998;42.676;23.268;2022-12-07T07:44:53;41.97;;;25.27;;
11877;SDS011;5998;42.676;23.268;2022-12-07T07:47:20;39.77;;;23.93;;
11877;SDS011;5998;42.676;23.268;2022-12-07T07:49:46;46.37;;;25.23;;
11877;SDS011;5998;42.676;23.268;2022-12-07T07:52:14;42.40;;;24.23;;
11877;SDS011;5998;42.676;23.268;2022-12-07T07:54:41;40.37;;;25.80;;
11877;SDS011;5998;42.676;23.268;2022-12-07T07:57:07;50.23;;;25.70;;
11877;SDS011;5998;42.676;23.268;2022-12-07T07:59:33;40.97;;;24.30;;
11877;SDS011;5998;42.676;23.268;2022-12-07T08:02:00;43.50;;;25.03;;
11877;SDS011;5998;42.676;23.268;2022-12-07T08:04:26;39.67;;;24.93;;
11877;SDS011;5998;42.676;23.268;2022-12-07T08:06:53;40.47;;;24.73;;
11877;SDS011;5998;42.676;23.268;2022-12-07T08:09:21;38.33;;;26.10;;
11877;SDS011;5998;42.676;23.268;2022-12-07T08:11:47;41.40;;;26.93;;
11877;SDS011;5998;42.676;23.268;2022-12-07T08:14:13;45.87;;;26.33;;
11877;SDS011;5998;42.676;23.268;2022-12-07T08:16:40;46.57;;;27.87;;
11877;SDS011;5998;42.676;23.268;2022-12-07T08:19:06;41.47;;;27.93;;
11877;SDS011;5998;42.676;23.268;2022-12-07T08:21:33;45.70;;;27.97;;
11877;SDS011;5998;42.676;23.268;2022-12-07T08:23:59;44.63;;;27.57;;
11877;SDS011;5998;42.676;23.268;2022-12-07T08:26:27;46.60;;;29.13;;
11877;SDS011;5998;42.676;23.268;2022-12-07T08:28:53;45.53;;;29.73;;
11877;SDS011;5998;42.676;23.268;2022-12-07T08:31:20;46.37;;;29.30;;
11877;SDS011;5998;42.676;23.268;2022-12-07T08:33:46;43.43;;;28.10;;
11877;SDS011;5998;42.676;23.268;2022-12-07T08:36:13;46.83;;;30.17;;
11877;SDS011;5998;42.676;23.268;2022-12-07T08:38:40;55.80;;;32.47;;
11877;SDS011;5998;42.676;23.268;2022-12-07T08:41:06;46.43;;;29.13;;
11877;SDS011;5998;42.676;23.268;2022-12-07T08:43:34;45.50;;;29.13;;
11877;SDS011;5998;42.676;23.268;2022-12-07T08:46:03;48.03;;;31.20;;
11877;SDS011;5998;42.676;23.268;2022-12-07T08:48:30;48.13;;;30.17;;
11877;SDS011;5998;42.676;23.268;2022-12-07T08:50:57;44.33;;;29.30;;
11877;SDS011;5998;42.676;23.268;2022-12-07T08:53:24;47.93;;;29.40;;
11877;SDS011;5998;42.676;23.268;2022-12-07T08:55:50;45.37;;;29.33;;
11877;SDS011;5998;42.676;23.268;2022-12-07T08:58:17;43.50;;;30.00;;
11877;SDS011;5998;42.676;23.268;2022-12-07T09:00:45;49.20;;;32.03;;
11877;SDS011;5998;42.676;23.268;2022-12-07T09:03:11;49.67;;;32.33;;
11877;SDS011;5998;42.676;23.268;2022-12-07T09:05:37;46.53;;;29.27;;
11877;SDS011;5998;42.676;23.268;2022-12-07T09:08:04;52.73;;;31.90;;
11877;SDS011;5998;42.676;23.268;2022-12-07T09:10:31;50.03;;;30.87;;
11877;SDS011;5998;42.676;23.268;2022-12-07T09:12:58;46.87;;;30.23;;
11877;SDS011;5998;42.676;23.268;2022-12-07T09:15:25;48.63;;;30.67;;
11877;SDS011;5998;42.676;23.268;2022-12-07T09:17:53;53.57;;;30.60;;
11877;SDS011;5998;42.676;23.268;2022-12-07T09:20:20;49.40;;;30.63;;
11877;SDS011;5998;42.676;23.268;2022-12-07T09:22:46;51.30;;;31.93;;
11877;SDS011;5998;42.676;23.268;2022-12-07T09:25:13;47.33;;;30.33;;
11877;SDS011;5998;42.676;23.268;2022-12-07T09:27:39;48.77;;;31.20;;
11877;SDS011;5998;42.676;23.268;2022-12-07T09:30:06;53.13;;;30.83;;
11877;SDS011;5998;42.676;23.268;2022-12-07T09:32:33;46.57;;;29.80;;
11877;SDS011;5998;42.676;23.268;2022-12-07T09:35:00;47.37;;;29.80;;
11877;SDS011;5998;42.676;23.268;2022-12-07T09:37:27;48.20;;;30.00;;
11877;SDS011;5998;42.676;23.268;2022-12-07T09:39:53;45.67;;;28.70;;
11877;SDS011;5998;42.676;23.268;2022-12-07T09:42:25;46.23;;;28.23;;
11877;SDS011;5998;42.676;23.268;2022-12-07T09:44:52;43.70;;;27.03;;
11877;SDS011;5998;42.676;23.268;2022-12-07T09:47:18;40.03;;;26.97;;
11877;SDS011;5998;42.676;23.268;2022-12-07T09:49:45;39.77;;;24.70;;
11877;SDS011;5998;42.676;23.268;2022-12-07T09:52:18;43.60;;;26.20;;
11877;SDS011;5998;42.676;23.268;2022-12-07T09:54:46;37.47;;;24.27;;
11877;SDS011;5998;42.676;23.268;2022-12-07T09:57:13;39.00;;;22.80;;
11877;SDS011;5998;42.676;23.268;2022-12-07T09:59:39;39.30;;;23.03;;
11877;SDS011;5998;42.676;23.268;2022-12-07T10:02:19;37.07;;;22.00;;
11877;SDS011;5998;42.676;23.268;2022-12-07T10:04:48;29.87;;;19.83;;
11877;SDS011;5998;42.676;23.268;2022-12-07T10:07:14;31.97;;;20.07;;
11877;SDS011;5998;42.676;23.268;2022-12-07T10:09:42;34.53;;;20.57;;
11877;SDS011;5998;42.676;23.268;2022-12-07T10:12:10;33.43;;;21.83;;
11877;SDS011;5998;42.676;23.268;2022-12-07T10:14:37;33.80;;;21.63;;
11877;SDS011;5998;42.676;23.268;2022-12-07T10:19:48;32.90;;;20.17;;
11877;SDS011;5998;42.676;23.268;2022-12-07T10:22:15;34.83;;;21.53;;
11877;SDS011;5998;42.676;23.268;2022-12-07T10:24:43;36.93;;;21.10;;
11877;SDS011;5998;42.676;23.268;2022-12-07T10:27:18;33.20;;;19.53;;
11877;SDS011;5998;42.676;23.268;2022-12-07T10:29:49;31.20;;;19.07;;
11877;SDS011;5998;42.676;23.268;2022-12-07T10:32:30;34.73;;;19.50;;
11877;SDS011;5998;42.676;23.268;2022-12-07T10:35:15;32.03;;;20.37;;
11877;SDS011;5998;42.676;23.268;2022-12-07T10:37:44;35.03;;;21.20;;
11877;SDS011;5998;42.676;23.268;2022-12-07T10:40:23;33.03;;;21.40;;
11877;SDS011;5998;42.676;23.268;2022-12-07T10:42:59;33.90;;;21.63;;
11877;SDS011;5998;42.676;23.268;2022-12-07T10:45:26;31.93;;;21.23;;
11877;SDS011;5998;42.676;23.268;2022-12-07T10:47:54;36.87;;;19.90;;
11877;SDS011;5998;42.676;23.268;2022-12-07T10:50:29;32.97;;;20.77;;
11877;SDS011;5998;42.676;23.268;2022-12-07T10:53:03;44.27;;;21.30;;
11877;SDS011;5998;42.676;23.268;2022-12-07T10:55:35;28.43;;;19.57;;
11877;SDS011;5998;42.676;23.268;2022-12-07T10:58:07;30.50;;;19.20;;
11877;SDS011;5998;42.676;23.268;2022-12-07T11:00:43;33.23;;;19.50;;
11877;SDS011;5998;42.676;23.268;2022-12-07T11:03:23;35.57;;;19.73;;
11877;SDS011;5998;42.676;23.268;2022-12-07T11:05:52;35.83;;;19.23;;
11877;SDS011;5998;42.676;23.268;2022-12-07T11:08:21;29.43;;;18.87;;
11877;SDS011;5998;42.676;23.268;2022-12-07T11:10:57;32.53;;;19.23;;
11877;SDS011;5998;42.676;23.268;2022-12-07T11:13:28;34.77;;;18.57;;
11877;SDS011;5998;42.676;23.268;2022-12-07T11:18:42;28.67;;;17.10;;
11877;SDS011;5998;42.676;23.268;2022-12-07T11:21:13;28.17;;;18.03;;
11877;SDS011;5998;42.676;23.268;2022-12-07T11:23:46;25.07;;;16.73;;
11877;SDS011;5998;42.676;23.268;2022-12-07T11:26:17;29.97;;;17.57;;
11877;SDS011;5998;42.676;23.268;2022-12-07T11:28:55;30.30;;;17.83;;
11877;SDS011;5998;42.676;23.268;2022-12-07T11:31:27;26.73;;;16.17;;
11877;SDS011;5998;42.676;23.268;2022-12-07T11:33:57;26.37;;;16.07;;
11877;SDS011;5998;42.676;23.268;2022-12-07T11:36:31;31.43;;;16.67;;
11877;SDS011;5998;42.676;23.268;2022-12-07T11:39:00;28.70;;;17.27;;
11877;SDS011;5998;42.676;23.268;2022-12-07T11:41:30;28.33;;;15.70;;
11877;SDS011;5998;42.676;23.268;2022-12-07T11:43:58;27.70;;;16.43;;
11877;SDS011;5998;42.676;23.268;2022-12-07T11:46:28;25.00;;;15.43;;
11877;SDS011;5998;42.676;23.268;2022-12-07T11:48:57;20.40;;;14.77;;
11877;SDS011;5998;42.676;23.268;2022-12-07T11:51:24;30.87;;;17.43;;
11877;SDS011;5998;42.676;23.268;2022-12-07T11:53:53;33.83;;;18.93;;
11877;SDS011;5998;42.676;23.268;2022-12-07T11:56:21;27.17;;;16.53;;
11877;SDS011;5998;42.676;23.268;2022-12-07T11:58:51;27.73;;;17.27;;
11877;SDS011;5998;42.676;23.268;2022-12-07T12:01:26;27.77;;;17.27;;
11877;SDS011;5998;42.676;23.268;2022-12-07T12:03:56;30.13;;;16.70;;
11877;SDS011;5998;42.676;23.268;2022-12-07T12:06:24;31.33;;;16.97;;
11877;SDS011;5998;42.676;23.268;2022-12-07T12:08:51;23.50;;;16.50;;
11877;SDS011;5998;42.676;23.268;2022-12-07T12:11:25;27.70;;;16.97;;
11877;SDS011;5998;42.676;23.268;2022-12-07T12:16:47;26.40;;;14.53;;
11877;SDS011;5998;42.676;23.268;2022-12-07T12:19:19;27.77;;;16.87;;
11877;SDS011;5998;42.676;23.268;2022-12-07T12:21:47;24.27;;;14.97;;
11877;SDS011;5998;42.676;23.268;2022-12-07T12:24:14;30.97;;;16.83;;
11877;SDS011;5998;42.676;23.268;2022-12-07T12:26:48;25.37;;;16.57;;
11877;SDS011;5998;42.676;23.268;2022-12-07T12:29:19;27.17;;;15.23;;
11877;SDS011;5998;42.676;23.268;2022-12-07T12:32:04;21.77;;;15.23;;
11877;SDS011;5998;42.676;23.268;2022-12-07T12:34:32;23.83;;;14.50;;
11877;SDS011;5998;42.676;23.268;2022-12-07T12:36:59;23.43;;;13.73;;
11877;SDS011;5998;42.676;23.268;2022-12-07T12:39:25;18.50;;;13.00;;
11877;SDS011;5998;42.676;23.268;2022-12-07T12:41:56;26.73;;;14.70;;
11877;SDS011;5998;42.676;23.268;2022-12-07T12:44:41;23.23;;;14.43;;
11877;SDS011;5998;42.676;23.268;2022-12-07T12:50:13;21.90;;;13.20;;
11877;SDS011;5998;42.676;23.268;2022-12-07T13:01:31;19.50;;;13.27;;
11877;SDS011;5998;42.676;23.268;2022-12-07T13:03:35;23.80;;;14.47;;
11877;SDS011;5998;42.676;23.268;2022-12-07T13:08:48;26.10;;;15.97;;
11877;SDS011;5998;42.676;23.268;2022-12-07T13:11:17;28.13;;;16.03;;
11877;SDS011;5998;42.676;23.268;2022-12-07T13:13:44;22.83;;;15.27;;
11877;SDS011;5998;42.676;23.268;2022-12-07T13:18:56;17.40;;;13.10;;
11877;SDS011;5998;42.676;23.268;2022-12-07T13:21:40;25.97;;;14.93;;
11877;SDS011;5998;42.676;23.268;2022-12-07T13:24:09;21.37;;;14.90;;
11877;SDS011;5998;42.676;23.268;2022-12-07T13:26:36;24.63;;;15.60;;
11877;SDS011;5998;42.676;23.268;2022-12-07T13:29:06;24.53;;;15.33;;
11877;SDS011;5998;42.676;23.268;2022-12-07T13:31:34;22.33;;;15.03;;
11877;SDS011;5998;42.676;23.268;2022-12-07T13:34:01;23.17;;;14.70;;
11877;SDS011;5998;42.676;23.268;2022-12-07T13:36:28;30.80;;;15.87;;
11877;SDS011;5998;42.676;23.268;2022-12-07T13:38:57;26.37;;;15.67;;
11877;SDS011;5998;42.676;23.268;2022-12-07T13:41:26;28.47;;;16.03;;
11877;SDS011;5998;42.676;23.268;2022-12-07T13:43:59;23.73;;;14.97;;
11877;SDS011;5998;42.676;23.268;2022-12-07T13:46:29;21.60;;;15.47;;
11877;SDS011;5998;42.676;23.268;2022-12-07T13:48:57;27.23;;;15.27;;
11877;SDS011;5998;42.676;23.268;2022-12-07T13:51:24;25.73;;;14.70;;
11877;SDS011;5998;42.676;23.268;2022-12-07T13:53:51;25.40;;;13.80;;
11877;SDS011;5998;42.676;23.268;2022-12-07T13:56:18;21.90;;;14.33;;
11877;SDS011;5998;42.676;23.268;2022-12-07T13:58:48;19.23;;;13.50;;
11877;SDS011;5998;42.676;23.268;2022-12-07T14:01:14;21.57;;;12.10;;
11877;SDS011;5998;42.676;23.268;2022-12-07T14:03:41;18.40;;;12.67;;
11877;SDS011;5998;42.676;23.268;2022-12-07T14:06:14;20.53;;;12.57;;
11877;SDS011;5998;42.676;23.268;2022-12-07T14:08:41;17.03;;;11.17;;
11877;SDS011;5998;42.676;23.268;2022-12-07T14:11:09;18.83;;;12.67;;
11877;SDS011;5998;42.676;23.268;2022-12-07T14:13:37;17.43;;;12.20;;
11877;SDS011;5998;42.676;23.268;2022-12-07T14:16:16;19.67;;;12.07;;
11877;SDS011;5998;42.676;23.268;2022-12-07T14:18:44;24.00;;;13.20;;
11877;SDS011;5998;42.676;23.268;2022-12-07T14:21:14;20.80;;;12.30;;
11877;SDS011;5998;42.676;23.268;2022-12-07T14:23:41;17.13;;;11.70;;
11877;SDS011;5998;42.676;23.268;2022-12-07T14:26:09;23.77;;;12.37;;
11877;SDS011;5998;42.676;23.268;2022-12-07T14:28:38;20.77;;;12.20;;
11877;SDS011;5998;42.676;23.268;2022-12-07T14:31:08;32.50;;;13.60;;
11877;SDS011;5998;42.676;23.268;2022-12-07T14:33:37;30.30;;;13.37;;
11877;SDS011;5998;42.676;23.268;2022-12-07T14:36:04;28.37;;;14.20;;
11877;SDS011;5998;42.676;23.268;2022-12-07T14:38:30;27.77;;;13.00;;
11877;SDS011;5998;42.676;23.268;2022-12-07T14:40:57;29.83;;;14.63;;
11877;SDS011;5998;42.676;23.268;2022-12-07T14:43:44;35.73;;;14.90;;
11877;SDS011;5998;42.676;23.268;2022-12-07T14:46:10;32.33;;;14.67;;
11877;SDS011;5998;42.676;23.268;2022-12-07T14:48:38;29.50;;;13.93;;
11877;SDS011;5998;42.676;23.268;2022-12-07T14:51:05;25.43;;;13.43;;
11877;SDS011;5998;42.676;23.268;2022-12-07T14:53:33;39.33;;;15.00;;
11877;SDS011;5998;42.676;23.268;2022-12-07T14:55:59;45.53;;;19.40;;